Aeroporto :
LOGIN :

Iscrizione | Disclaimer

   EN    FR    IT 

 










Sommario :    VFR   VFR Marginale   IFR   IFR Intensivo   IFR Molto Intensivo
Visibilità : 
Base nubi : 
>= 8 km
>= 3000ft
5 / 8 km
1000 / 3000 ft
1500m / 5 km
500 / 1000 ft
800 / 1500m
200 / 500 ft
< 800m
< 200 ft
Simboli :   Temporali  Nebbia  Neve Forte  Precipitazioni Forti  Vento > 20 kt
SIGMETs :   Varie  Temporali  Ghiacco  Turbolenza  Onda orograficha  Ceneri Vulcaniche






- Altitudine del aeroporto : 247 ft
- Codice IATA : BLL


EKBI - Billund

ULTIMO METAR :
  • 210150Z AUTO 31005KT 9999 NCD M03/M07 Q1025

METARs OBSOLETI :
  • 210120Z AUTO 30006KT 9999 NCD M03/M06 Q1025
  • 210050Z AUTO 29007KT 9999 NCD M04/M07 Q1024
  • 210020Z AUTO 27005KT 9999 NCD M04/M07 Q1024
  • 202350Z AUTO 28004KT 9999 NCD M03/M07 Q1024
  • 202320Z AUTO 28006KT 9999 NCD M04/M07 Q1024

TAF TAF EKBI
Valido dal 21 a 00 ore il 22 a 00 ore UTC


202307Z 2100/2124 32008KT 9999 SCT030
BECMG 2110/2112 26010KT 3000 RADZ BKN006
BECMG 2112/2115 32012KT 9999 NSW BKN018
TEMPO 2115/2124 4000 BR BKN008



MetMap, La meteo Aeronautica in un colpo d'occhio ! - Copyright ORBIFLY Dicembre 2007 - Disclaimer

ORBIFLY MET'MAP TEAM :

Programmazione e sviluppo : Alexandra Zaïnal
Concezione : Baudouin d'Aumeries
Aiuto per la programmazione : Marc-Olivier Méhu
Supporto tecnico e logistico : Manuel Goepfert
Aiuto per la traduzione : Arnaldo La Scala

Contatto : metmap@orbifly.com




FONTI E CREDITI :

   NOAA